City Time Now High Low DP Feels RH% Vsby Pressure Ceiling Direction Speed Gust Precip
Algona
MVFR
7:55AM 32° 37° 32° 25° 22° 74
%
10
mi
1022.4
mb
2200
ft
WNW 15
mph
0.00"
KAXA 141255Z AUTO 30013KT 10SM BKN022 M00/M04 A3019 RMK A01
Ankeny
VFR
7:55AM 34° 37° 34° 23° 25° 64
%
10
mi
1024.0
mb
None NW 13
mph
0.00"
KIKV 141255Z AUTO 31011KT 10SM CLR 01/M05 A3024 RMK AO2
Atlantic
VFR
7:55AM 32° 34° 28° 25° 23° 74
%
10
mi
1024.4
mb
None NW 12
mph
0.00"
KAIO 141255Z AUTO 31010KT 10SM CLR 00/M04 A3025 RMK AO2
Audubon
VFR
7:55AM 30° 32° 28° 25° 23° 80
%
10
mi
1024.0
mb
None WNW 7
mph
0.00"
KADU 141255Z AUTO 30006KT 10SM SCT027 M01/M04 A3024 RMK AO2
Boone
MVFR
7:55AM 32° 36° 30° 27° 22° 80
%
10
mi
1022.7
mb
2500
ft
NW 13
mph
0.00"
KBNW 141255Z AUTO 32011KT 10SM OVC025 00/M03 A3020 RMK AO2
Burlington
VFR
7:53AM 38° 42° 31° 29° 31° 70
%
10
mi
1022.7
mb
None WSW 9
mph
0.00"
KBRL 141253Z AUTO 25008KT 10SM CLR 03/M02 A3020 RMK AO2 SLP228 T00331017
Carroll
MVFR
7:55AM 34° 34° 28° 27° 23° 75
%
10
mi
1023.4
mb
2400
ft
NW 16
mph
22
mph
0.00"
KCIN 141255Z AUTO 31014G19KT 10SM OVC024 01/M03 A3022 RMK AO2
Cedar Rapids
VFR
7:52AM 33° 33° 27° 26° 24° 75
%
10
mi
1021.3
mb
None NW 13
mph
0.00"
KCID 141252Z 31011KT 10SM CLR 01/M03 A3016 RMK AO2 SLP221 T00061033
Chariton
VFR
7:55AM 36° 39° 32° 27° 26° 69
%
10
mi
1023.4
mb
None WNW 15
mph
0.00"
KCNC 141255Z AUTO 30013KT 10SM CLR 02/M03 A3022 RMK AO2
Charles City
MVFR
7:55AM 30° 34° 28° 27° 19° 86
%
10
mi
1021.7
mb
1600
ft
NW 15
mph
0.00"
KCCY 141255Z AUTO 31013KT 10SM OVC016 M01/M03 A3017 RMK AO2
Clarinda
VFR
7:55AM 36° 37° 27° 25° 27° 64
%
10
mi
1025.7
mb
None NW 12
mph
0.00"
KICL 141255Z AUTO 31010KT 10SM CLR 02/M04 A3029 RMK AO2
Clarion
MVFR
7:55AM 32° 36° 32° 25° 21° 74
%
10
mi
1022.7
mb
2200
ft
NW 16
mph
22
mph
0.00"
KCAV 141255Z AUTO 31014G19KT 10SM OVC022 00/M04 A3020 RMK A01
Clinton
VFR
7:56AM 35° 35° 29° 29° 27° 78
%
10
mi
1021.7
mb
None WNW 10
mph
0.00"
KCWI 141256Z AUTO 29009KT 10SM CLR 02/M02 A3017 RMK AO2 SLP225 T00171017 FZRANO
Council Bluffs
VFR
7:55AM 34° 37° 32° 21° 26° 60
%
10
mi
1024.7
mb
None WNW 10
mph
0.00"
KCBF 141255Z AUTO 30009KT 10SM CLR 01/M06 A3026 RMK AO2
Creston
VFR
7:55AM 32° 37° 28° 27° 22° 80
%
10
mi
1023.7
mb
None NW 13
mph
0.00"
KCSQ 141255Z AUTO 31011KT 10SM CLR 00/M03 A3023 RMK AO2
Centerville
VFR
7:35AM 36° 39° 32° 27° 69
%
10
mi
1024.0
mb
None 0.00"
KTVK 141235Z AUTO 10SM CLR 02/M03 A3024 RMK AO2
Cherokee
VFR
7:55AM 32° 36° 30° 22° 22° 67
%
10
mi
1024.0
mb
7500
ft
NW 13
mph
18
mph
0.00"
KCKP 141255Z AUTO 31011G16KT 10SM SCT028 BKN075 OVC080 00/M05 A3024 RMK AO2 T10011055
Decorah 7:55AM 30° 36° 30° 28° 22° 93
%
10
mi
1020.3
mb
NW 9
mph
17
mph
0.00"
KDEH 141255Z AUTO 31008G15KT 270V340 10SM M01/M02 A3013 RMK AO2
Denison
MVFR
7:55AM 32° 34° 28° 25° 24° 74
%
10
mi
1024.7
mb
2500
ft
NW 9
mph
0.00"
KDNS 141255Z AUTO 31008KT 10SM OVC025 M00/M04 A3026 RMK AO2
Des Moines
VFR
7:54AM 34° 37° 33° 22° 24° 61
%
10
mi
1024.0
mb
None NW 16
mph
0.00"
KDSM 141254Z 31014KT 10SM FEW038 FEW300 01/M06 A3024 RMK AO2 SLP245 T00111056
Dubuque
VFR
7:53AM 34° 34° 27° 26° 25° 73
%
10
mi
1020.3
mb
None WNW 14
mph
0.00"
KDBQ 141253Z 30012KT 10SM CLR 01/M03 A3013 RMK AO2 SLP214 T00111033
Estherville
VFR
7:52AM 29° 31° 28° 22° 18° 75
%
10
mi
1022.7
mb
None WNW 15
mph
0.00"
KEST 141252Z AUTO 30013KT 10SM FEW021 M02/M06 A3020 RMK AO2 SLP240 T10171056
Fairfield
VFR
7:55AM 36° 37° 30° 28° 29° 75
%
10
mi
1023.0
mb
None WNW 9
mph
15
mph
0.00"
KFFL 141255Z AUTO 29008G13KT 10SM CLR 02/M02 A3021 RMK A01
Fort Dodge
MVFR
7:56AM 32° 35° 32° 22° 24° 66
%
10
mi
1023.4
mb
2400
ft
WNW 9
mph
16
mph
0.00"
KFOD 141256Z AUTO 30008G14KT 10SM OVC024 00/M06 A3022 RMK AO2 SLP273 T00001056 FZRANO
Fort Madison
VFR
7:55AM 39° 43° 32° 28° 34° 65
%
10
mi
1023.0
mb
None W 8
mph
0.00"
KFSW 141255Z AUTO 27007KT 10SM CLR 04/M02 A3021 RMK AO2
Forest City
MVFR
7:55AM 32° 36° 32° 27° 23° 80
%
10
mi
1022.0
mb
1800
ft
NNW 12
mph
17
mph
0.00"
KFXY 141255Z AUTO 33010G15KT 10SM OVC018 00/M03 A3018 RMK AO2
Grinnell
VFR
7:55AM 35° 37° 32° 27° 26° 74
%
10
mi
1023.0
mb
None WNW 13
mph
0.00"
KGGI 141255Z AUTO 29011KT 10SM CLR 01/M03 A3021 RMK AO2 T00141028
Harlan
VFR
7:55AM 30° 30° 27° 27° 21° 86
%
10
mi
1024.4
mb
None NW 10
mph
0.00"
KHNR 141255Z AUTO 31009KT 10SM CLR M01/M03 A3025 RMK AO2
Hampton
MVFR
7:55AM 32° 34° 32° 27° 21° 80
%
10
mi
1022.4
mb
2300
ft
WNW 17
mph
24
mph
0.00"
KHPT 141255Z AUTO 30015G21KT 10SM OVC023 00/M03 A3019 RMK AO2
Independence
MVFR
7:55AM 33° 34° 30° 26° 24° 75
%
10
mi
1021.7
mb
2300
ft
NW 12
mph
16
mph
0.00"
KIIB 141255Z AUTO 31010G14KT 10SM OVC023 00/M03 A3017 RMK AO2 T00041035
Iowa City
VFR
7:52AM 36° 36° 30° 23° 29° 59
%
10
mi
1022.7
mb
None NW 9
mph
0.00"
KIOW 141252Z AUTO 32008KT 10SM CLR 02/M05 A3020 RMK AO2 SLP229 T00221050
Iowa Falls
MVFR
7:55AM 34° 34° 30° 25° 22° 70
%
10
mi
1022.7
mb
2400
ft
WNW 20
mph
23
mph
0.00"
KIFA 141255Z AUTO 29017G20KT 10SM OVC024 01/M04 A3020 RMK AO2 T00101039
Keokuk
VFR
7:55AM 39° 45° 32° 32° 34° 75
%
10
mi
1023.4
mb
None WSW 7
mph
0.00"
KEOK 141255Z AUTO 25006KT 10SM CLR 04/00 A3022 RMK AO2
Knoxville
VFR
7:55AM 36° 37° 32° 25° 27° 64
%
10
mi
1023.4
mb
None WNW 13
mph
0.00"
KOXV 141255Z AUTO 29011KT 10SM CLR 02/M04 A3022 RMK AO2
Lamoni
VFR
7:53AM 35° 39° 30° 25° 28° 66
%
10
mi
1024.0
mb
None WNW 9
mph
0.00"
KLWD 141253Z AUTO 30008KT 10SM CLR 02/M04 A3024 RMK AO2 SLP247 T00171039
Le Mars
VFR
7:55AM 32° 36° 30° 21° 22° 64
%
10
mi
1024.4
mb
7000
ft
NW 14
mph
0.00"
KLRJ 141255Z AUTO 31012KT 10SM OVC070 00/M06 A3025 RMK AO2
Marshalltown
MVFR
7:53AM 32° 32° 25° 26° 24° 79
%
10
mi
1022.4
mb
2700
ft
NW 9
mph
0.00"
KMIW 141253Z AUTO 31008KT 10SM OVC027 00/M03 A3019 RMK AO2 SLP232 T00001033
Mason City
MVFR
7:53AM 30° 35° 29° 22° 19° 71
%
10
mi
1022.4
mb
1700
ft
WNW 14
mph
0.00"
KMCW 141253Z AUTO 30012KT 10SM OVC017 M01/M06 A3019 RMK AO2 SLP232 T10111056
Monticello
VFR
7:55AM 34° 34° 30° 28° 24° 80
%
10
mi
1021.0
mb
None NW 15
mph
0.00"
KMXO 141255Z AUTO 32013KT 10SM CLR 01/M02 A3015 RMK AO2
Mount Pleasant
VFR
7:55AM 37° 43° 32° 32° 30° 81
%
10
mi
1022.7
mb
None WNW 10
mph
0.00"
KMPZ 141255Z AUTO 29009KT 10SM CLR 03/00 A3020 RMK AO2
Muscatine
VFR
7:55AM 37° 37° 32° 28° 30° 70
%
10
mi
1022.7
mb
None WNW 12
mph
0.00"
KMUT 141255Z AUTO 29010KT 10SM CLR 03/M02 A3020 RMK AO2
Newton
VFR
7:55AM 34° 36° 32° 25° 26° 69
%
10
mi
1022.7
mb
None NW 10
mph
17
mph
0.00"
KTNU 141255Z AUTO 31009G15KT 10SM CLR 01/M04 A3020 RMK A01
Oelwein
MVFR
7:55AM 32° 34° 28° 23° 20° 69
%
10
mi
1021.3
mb
2200
ft
WNW 21
mph
0.00"
KOLZ 141255Z AUTO 30018KT 10SM OVC022 M00/M05 A3016 RMK A01
Ottumwa
VFR
7:53AM 36° 36° 29° 26° 28° 67
%
10
mi
1023.4
mb
None WNW 12
mph
0.00"
KOTM 141253Z AUTO 29010KT 10SM CLR 02/M03 A3022 RMK AO2 SLP238 T00221033
Osceola
VFR
7:55AM 36° 39° 32° 26° 27° 66
%
10
mi
1023.7
mb
None WNW 13
mph
0.00"
KI75 141255Z AUTO 30011KT 10SM CLR 02/M04 A3023 RMK AO2 T00201036
Oskaloosa
VFR
7:55AM 38° 38° 32° 28° 29° 69
%
10
mi
1023.4
mb
None NW 15
mph
20
mph
0.00"
KOOA 141255Z AUTO 31013G17KT 10SM CLR 03/M02 A3022 RMK AO2 T00321020
Pella
VFR
7:55AM 37° 37° 33° 25° 29° 62
%
10
mi
1023.7
mb
None NW 12
mph
18
mph
0.00"
KPEA 141255Z AUTO 31010G16KT 10SM CLR 03/M04 A3023 RMK AO2 T00251040
Perry
MVFR
7:55AM 33° 33° 28° 24° 25° 68
%
10
mi
1024.0
mb
2800
ft
WNW 9
mph
0.00"
KPRO 141255Z AUTO 30008KT 10SM OVC028 01/M05 A3024 RMK AO2 T00061046
Quad Cities
VFR
7:52AM 35° 37° 32° 27° 28° 72
%
10
mi
1022.4
mb
None W 9
mph
0.00"
KDVN 141252Z AUTO 27008KT 10SM CLR 02/M03 A3019 RMK AO2 SLP224 T00171028
Red Oak
VFR
7:55AM 36° 37° 30° 25° 27° 64
%
10
mi
1025.4
mb
None NW 12
mph
0.00"
KRDK 141255Z AUTO 31010KT 10SM CLR 02/M04 A3028 RMK AO2
Sheldon
MVFR
7:55AM 30° 34° 30° 23° 19° 74
%
10
mi
1023.0
mb
2300
ft
NW 15
mph
0.00"
KSHL 141255Z AUTO 32013KT 10SM OVC023 M01/M05 A3021 RMK AO2
Shenandoah
VFR
7:55AM 36° 39° 28° 28° 33° 75
%
10
mi
1025.4
mb
None W 3
mph
0.00"
KSDA 141255Z AUTO 27003KT 10SM CLR 02/M02 A3028 RMK AO2
Sioux City
VFR
7:52AM 30° 30° 26° 23° 22° 75
%
10
mi
1025.1
mb
3100
ft
WNW 8
mph
0.00"
KSUX 141252Z 29007KT 10SM BKN031 M01/M05 A3027 RMK AO2 SLP260 T10111050
Spencer
MVFR
7:53AM 32° 35° 32° 22° 22° 66
%
10
mi
1023.0
mb
2200
ft
WNW 15
mph
0.00"
KSPW 141253Z AUTO 30013KT 10SM OVC022 00/M06 A3021 RMK AO2 SLP244 T00001056
Sioux County
VFR
7:55AM 30° 34° 30° 23° 17° 74
%
10
mi
1023.7
mb
7000
ft
NW 21
mph
0.00"
KSXK 141255Z AUTO 32018KT 10SM FEW060 OVC070 M01/M05 A3023 RMK AO2
Storm Lake
MVFR
7:55AM 30° 36° 30° 23° 19° 74
%
10
mi
1023.4
mb
2300
ft
NW 15
mph
0.00"
KSLB 141255Z AUTO 31013KT 10SM OVC023 M01/M05 A3022 RMK AO2
Vinton
VFR
7:55AM 36° 36° 33° 26° 29° 68
%
10
mi
1022.0
mb
None NW 9
mph
0.00"
KVTI 141255Z AUTO 31008KT 10SM SCT035 02/M03 A3018 RMK AO2 T00221031
Washington 7:55AM 0.00"
KAWG 141255Z AUTO RMK AO2 PNO PWINO
Waterloo
MVFR
7:54AM 34° 35° 31° 23° 24° 64
%
10
mi
1022.0
mb
2500
ft
NW 16
mph
25
mph
0.00"
KALO 141254Z 31014G22KT 10SM OVC025 01/M05 A3018 RMK AO2 SLP229 T00111050
Webster City
MVFR
7:55AM 34° 34° 28° 25° 23° 69
%
10
mi
1022.7
mb
2400
ft
NW 16
mph
0.00"
KEBS 141255Z AUTO 32014KT 10SM OVC024 01/M04 A3020 RMK AO2
Click here to show this page without METARs included